• Join FlightAware (Why Join?)
  • Login
  • US Flag 
 
12:36PM EST


 

Airport Tracker/Info


-or-


 

Live Flight TrackerFlight Track Log ✈ SWA4151 ✈ 29-Nov-2013 ✈ KLAX - KPHX

Flight Track Log - Related Links

Times and Time Zones

All times are in EST time to prevent confusion due to time zone crossing. See the SWA4151 flight status page for this flight to view local times or setup timezone preferences in your user account.

Time Position Orientation Groundspeed Altitude Reporting Facility
EST Latitude Longitude Course Direction KTS MPH feet Rate Location/Type
07:46PM 33.9228 -118.5236 250° West 252 290 5,800  Level Los Angeles Center
07:47PM 33.8594 -118.5194 177° South 272 313 10,200 3,480 Climbing Los Angeles Center
07:48PM 33.7669 -118.5206 181° South 321 369 13,000 1,560 Climbing Los Angeles Center
07:49PM 33.7106 -118.4511 134° Southeast 330 380 13,400 2,280 Climbing Los Angeles Center
07:50PM 33.7072 -118.3258 92° East 338 389 17,700 3,780 Climbing Los Angeles Center
07:51PM 33.9075 -117.7803 90° East  Level Estimated
07:51PM 33.7031 -118.1994 92° East 367 422 21,300  Level Los Angeles Center
07:52PM 33.6989 -118.0625 92° East 391 450 24,600 2,640 Climbing Los Angeles Center
07:53PM 33.6942 -117.9239 92° East 418 481 26,800 2,700 Climbing Los Angeles Center
07:55PM 33.6886 -117.7383 92° East 457 526 30,300 3,000 Climbing Los Angeles Center
07:56PM 33.6831 -117.5856 92° East 461 531 33,000 1,260 Climbing Los Angeles Center
07:57PM 33.6778 -117.4378 92° East 450 518 33,000  Level Los Angeles Center
07:58PM 33.6728 -117.2900 92° East 446 513 33,000  Level Los Angeles Center
07:59PM 33.6678 -117.1422 92° East 445 512 33,000  Level Los Angeles Center
08:00PM 33.6631 -116.9917 92° East 451 519 33,000  Level Los Angeles Center
08:01PM 33.6583 -116.8392 92° East 452 520 33,000  Level Los Angeles Center
08:02PM 33.6511 -116.6889 93° East 451 519 33,000  Level Los Angeles Center
08:03PM 33.6411 -116.5083 94° East 451 519 33,000  Level Los Angeles Center
08:04PM 33.6306 -116.3581 95° East 451 519 33,000  Level Los Angeles Center
08:05PM 33.6211 -116.2053 94° East 455 524 33,000  Level Los Angeles Center
08:06PM 33.6103 -116.0528 95° East 457 526 33,000  Level Los Angeles Center
08:07PM 33.5989 -115.9031 95° East 451 519 33,000  Level Los Angeles Center
08:08PM 33.5908 -115.7558 94° East 444 511 33,000  Level Los Angeles Center
08:09PM 33.5794 -115.6044 95° East 452 520 33,000  Level Los Angeles Center
08:10PM 33.5686 -115.4553 95° East 451 519 33,000  Level Los Angeles Center
08:11PM 33.5594 -115.3075 94° East 446 513 33,000  Level Los Angeles Center
08:12PM 33.5450 -115.1283 95° East 449 517 33,000  Level Los Angeles Center
08:13PM 33.5328 -114.9792 96° East 450 518 33,000  Level Los Angeles Center
08:14PM 33.5197 -114.8286 96° East 453 521 33,000  Level Los Angeles Center
08:15PM 33.5081 -114.6778 95° East 455 524 33,000 -300 Level Los Angeles Center
08:16PM 33.4958 -114.5269 96° East 455 524 32,500 -1,440 Descending Los Angeles Center
08:17PM 33.4853 -114.3761 95° East 455 524 29,800 -2,640 Descending Los Angeles Center
08:18PM 33.4692 -114.1931 96° East 459 528 26,600 -2,820 Descending Los Angeles Center
08:19PM 33.4636 -114.0792 93° East 454 522 25,000 -960 Descending Albuquerque Center
08:20PM 33.4356 -113.9428 104° East 430 495 25,000  Level Albuquerque Center
08:21PM 33.4092 -113.8069 103° East 421 484 25,000 -60 Level Albuquerque Center
08:22PM 33.3806 -113.6725 104° East 418 481 24,900 -900 Descending Albuquerque Center
08:23PM 33.3553 -113.5450 103° East 402 463 23,200 -1,500 Descending Albuquerque Center
08:24PM 33.3233 -113.3908 104° East 398 458 21,900 -1,560 Descending Albuquerque Center
08:25PM 33.2978 -113.2647 104° East 393 452 20,100 -1,920 Descending Albuquerque Center
08:26PM 33.2739 -113.1428 103° East 382 440 18,100 -1,620 Descending Albuquerque Center
08:27PM 33.2753 -113.0192 89° East 372 428 16,900 -660 Descending Albuquerque Center
08:28PM 33.2781 -112.8969 88° East 368 423 16,800 -540 Descending Albuquerque Center
08:29PM 33.2811 -112.7781 88° East 362 417 15,900 -720 Descending Albuquerque Center
08:30PM 33.2828 -112.6633 89° East 353 406 15,400 -1,020 Descending Albuquerque Center
08:31PM 33.2867 -112.5531 88° East 339 390 13,900 -1,620 Descending Albuquerque Center
08:32PM 33.2900 -112.4461 88° East 328 377 12,200 -1,500 Descending Albuquerque Center
08:33PM 33.2928 -112.3406 88° East 319 367 10,900 -660 Descending Albuquerque Center
08:34PM 33.3000 -112.2489 85° East 283 326 10,900 -660 Level Albuquerque Center
08:35PM 33.3067 -112.1461 86° East 262 302 9,600 -1,260 Descending Albuquerque Center
08:36PM 33.3194 -112.0625 80° East 258 297 8,400 -1,140 Descending Albuquerque Center
08:37PM 33.3397 -111.9822 73° East 254 292 7,300 -780 Descending Albuquerque Center
08:38PM 33.3458 -111.9044 85° East 235 270 6,900 -420 Descending Albuquerque Center
08:39PM 33.3450 -111.8375 91° East 207 238 6,500 -660 Descending Albuquerque Center
08:40PM 33.3544 -111.7806 79° East 194 223 5,600 -1,020 Descending Albuquerque Center
08:41PM 33.4058 -111.7817 359° North 189 217 4,500 -960 Descending Albuquerque Center
08:43PM 33.4294 -111.8383 297° West 187 215 3,700 -840 Descending Albuquerque Center
08:44PM 33.4314 -111.8986 272° West 182 209 2,800 -900 Descending Albuquerque Center
08:45PM 33.4317 -111.9489 270° West 157 181 1,900 -840 Descending Albuquerque Center
08:46PM 33.4306 -111.9975 268° West 124 143 1,100 -840 Descending Albuquerque Center